»·PEaware :: N5LH KCLM-KFHR

N5LH :: KCLM-KFHR

FLIGHT INFORMATION

Flight Status: Arrived
Operator: Privately registered:
United States
More flights under this callsign
Pilot: Sonny B. (6473)
Aircraft: BEECH AIRCRAFT BARON
(BE58)
More flights by this aircraft type
Origin: KCLM Fairchild Intl
United States
Destination: KFHR Friday Harbor
United States
More flights between these airports :: More routes between these airports
Route: +WATTR7 WATTR
File this flight plan on PilotEdge
Remarks:
Altitude:
(Current/Filed)
7,000ft
Speed:
(Current/Filed)
185kts
Departed: 22-May-20 07:49 PM
Arrived: 22-May-20 08:21 PM
Distance/Time
Traveled:
31nm/0:32
Distance/Time
To Go:
Arrived

Flight Plot

Page will automatically refresh every two minutes.


Map Options




Map Legend


Flown Route
Filed Route
Departure Airport
Arrival Airport
Navaid (VOR, NDB)
Fix

Horizontal Profiles

Position Reports

Time Latitude Longitude Heading Altitude Ground
Speed
22-May-20 19:29 48.116303 -123.491808 195 282ft 0kts
22-May-20 19:30 48.116303 -123.491808 195 282ft 0kts
22-May-20 19:31 48.116303 -123.491808 195 282ft 0kts
22-May-20 19:32 48.116303 -123.491808 195 282ft 0kts
22-May-20 19:33 48.116303 -123.491808 195 282ft 0kts
22-May-20 19:34 48.116344 -123.492018 335 281ft 0kts
22-May-20 19:35 48.116344 -123.492018 335 281ft 0kts
22-May-20 19:35 48.116344 -123.492018 335 281ft 0kts
22-May-20 19:37 48.116344 -123.492018 335 281ft 0kts
22-May-20 19:37 48.116344 -123.492018 335 281ft 0kts
22-May-20 19:38 48.116344 -123.492018 335 281ft 0kts
22-May-20 19:39 48.116344 -123.492018 335 281ft 0kts
22-May-20 19:40 48.116344 -123.492018 335 281ft 0kts
22-May-20 19:41 48.116344 -123.492018 335 281ft 0kts
22-May-20 19:42 48.116344 -123.492018 335 281ft 0kts
22-May-20 19:43 48.116344 -123.492018 335 281ft 0kts
22-May-20 19:44 48.116520 -123.492136 342 280ft 7kts
22-May-20 19:45 48.115984 -123.486695 37 296ft 0kts
22-May-20 19:46 48.115984 -123.486695 38 296ft 0kts
22-May-20 19:47 48.116325 -123.486541 10 296ft 10kts
22-May-20 19:48 48.120520 -123.508290 285 693ft 117kts
22-May-20 19:49 48.136427 -123.547649 352 2017ft 135kts
22-May-20 19:50 48.147906 -123.494461 90 3232ft 161kts
22-May-20 19:51 48.145862 -123.427764 87 4426ft 159kts
22-May-20 19:52 48.144819 -123.362380 86 5617ft 154kts
22-May-20 19:53 48.143907 -123.306476 86 6669ft 147kts
22-May-20 19:54 48.143340 -123.266810 86 7025ft 167kts
22-May-20 19:55 48.142905 -123.225907 86 7044ft 185kts
22-May-20 19:56 48.142228 -123.178740 87 7039ft 192kts
22-May-20 19:57 48.141475 -123.130223 87 7039ft 194kts
22-May-20 19:58 48.140798 -123.082423 87 7039ft 194kts
22-May-20 19:59 48.139968 -123.017792 88 7044ft 194kts
22-May-20 20:00 48.159405 -122.943527 353 7062ft 171kts
22-May-20 20:01 48.202736 -122.953237 347 6588ft 173kts
22-May-20 20:02 48.234733 -122.960326 347 6061ft 175kts
22-May-20 20:03 48.295282 -122.973748 347 5076ft 179kts
22-May-20 20:04 48.395170 -122.995956 347 3496ft 185kts
22-May-20 20:05 48.485791 -123.015999 346 3008ft 173kts
22-May-20 20:06 48.533542 -123.025586 348 2991ft 172kts
22-May-20 20:07 48.569486 -122.999155 100 2971ft 181kts
22-May-20 20:08 48.532389 -122.994811 222 2981ft 162kts
22-May-20 20:09 48.493497 -123.022907 174 2863ft 177kts
22-May-20 20:10 48.445103 -123.011094 178 2304ft 164kts
22-May-20 20:11 48.409451 -122.976837 129 2317ft 166kts
22-May-20 20:12 48.377869 -122.954833 239 2332ft 136kts
22-May-20 20:13 48.394479 -123.003775 309 2322ft 144kts
22-May-20 20:14 48.436047 -123.015892 349 1881ft 155kts
22-May-20 20:15 48.476561 -123.020733 351 1033ft 133kts
22-May-20 20:16 48.508124 -123.005243 38 764ft 123kts
22-May-20 20:17 48.537083 -122.980568 14 783ft 119kts
22-May-20 20:18 48.547444 -123.008654 248 653ft 100kts
22-May-20 20:19 48.525667 -123.024565 183 117ft 83kts
22-May-20 20:20 48.519193 -123.024768 357 92ft 36kts

Navigation Log

Ident Type
Flight plan parsing failed, navigation log unavailable